Seward, Nebraska
Current Conditions -  °F | °C
As of 8:54 PM on Saturday 22 Nov 2014 (Local Time) from KLNK Reporting Station
Overcast Overcast  
Wind Chill: 58°   Ceiling: 1700
Heat Index: 58°   Visibility: 10mi
Dew Point: 52°   Wind: 16mph
Humidity: 81%   Direction: 190°S
Pressure: 29.59"   Gusts: NA
Location:  40.91°N, 97.1°W
Report Text: KLNK 230254Z 19014KT 10SM BKN017 OVC025 14/11 A2959 RMK AO2 SLP021 T01440111 56003
Loading
Personal Weather Stations






























Interactive Weather Map New forecast layout! Learn more

10-Day Weather Forecast

Advertisements
Track Severe Weather on mobile